Time;durP1;ratioP1;P1;durP2;ratioP2;P2;SDS_P1;SDS_P2;PMS_P1;PMS_P2;Temp;Humidity;BMP_temperature;BMP_pressure;BME280_temperature;BME280_humidity;BME280_pressure;Samples;Min_cycle;Max_cycle;Signal;HPM_P1;HPM_P2
2023/10/14 00:01:45;;;;;;;17.27;2.10;;;;;;;;;;5074213;28;20024;-86
2023/10/14 00:04:11;;;;;;;6.05;1.13;;;;;;;;;;5056605;28;20025;-86
2023/10/14 00:06:39;;;;;;;4.43;1.30;;;;;;;;;;5057074;28;20078;-86
2023/10/14 00:09:14;;;;;;;2.33;0.85;;;;;;;;;;5057202;28;20108;-87
2023/10/14 00:12:03;;;;;;;2.90;0.70;;;;;;;;;;5057356;28;20686;-87
2023/10/14 00:14:25;;;;;;;4.35;1.20;;;;;;;;;;5073563;28;20029;-86
2023/10/14 00:16:53;;;;;;;3.78;0.80;;;;;;;;;;5074198;28;20107;-87
2023/10/14 00:19:21;;;;;;;1.55;0.50;;;;;;;;;;5057381;28;20045;-87
2023/10/14 00:21:48;;;;;;;1.38;0.50;;;;;;;;;;5056964;28;20024;-88
2023/10/14 00:24:25;;;;;;;0.63;0.50;;;;;;;;;;5075158;28;20419;-87
2023/10/14 00:26:51;;;;;;;3.03;0.70;;;;;;;;;;5056505;28;20060;-88
2023/10/14 00:31:42;;;;;;;1.48;0.73;;;;;;;;;;5071180;28;20024;-87
2023/10/14 00:34:08;;;;;;;1.10;0.20;;;;;;;;;;5056622;28;20036;-88
2023/10/14 00:36:34;;;;;;;1.35;0.32;;;;;;;;;;5057086;28;20490;-88
2023/10/14 00:39:12;;;;;;;4.07;1.27;;;;;;;;;;5056875;28;20021;-88
2023/10/14 00:41:44;;;;;;;2.78;0.73;;;;;;;;;;5056176;28;20031;-88
2023/10/14 00:44:10;;;;;;;0.60;0.20;;;;;;;;;;5042039;28;20040;-87
2023/10/14 00:46:36;;;;;;;0.57;0.15;;;;;;;;;;5057288;28;20033;-87
2023/10/14 00:49:04;;;;;;;2.38;0.20;;;;;;;;;;5057189;28;20017;-88
2023/10/14 00:51:33;;;;;;;1.90;0.20;;;;;;;;;;5075402;28;20437;-88
2023/10/14 00:54:03;;;;;;;3.00;0.63;;;;;;;;;;5056801;28;20035;-87
2023/10/14 00:56:33;;;;;;;1.80;0.20;;;;;;;;;;5056707;28;20024;-88
2023/10/14 00:58:59;;;;;;;0.60;0.32;;;;;;;;;;5055778;28;20044;-87
2023/10/14 01:01:28;;;;;;;2.92;0.63;;;;;;;;;;5056954;28;20487;-87
2023/10/14 01:04:18;;;;;;;0.90;0.50;;;;;;;;;;5056224;28;20452;-88
2023/10/14 01:07:03;;;;;;;3.70;1.23;;;;;;;;;;5055870;28;20021;-89
2023/10/14 01:14:52;;;;;;;2.10;0.70;;;;;;;;;;5073624;28;20107;-88
2023/10/14 01:17:28;;;;;;;1.63;0.75;;;;;;;;;;5055595;28;20464;-88
2023/10/14 01:19:54;;;;;;;4.93;0.60;;;;;;;;;;5055134;28;20391;-89
2023/10/14 01:22:20;;;;;;;5.13;0.70;;;;;;;;;;5055466;28;20025;-89
2023/10/14 01:24:45;;;;;;;1.67;0.63;;;;;;;;;;5056015;28;20017;-88
2023/10/14 01:27:13;;;;;;;4.22;0.60;;;;;;;;;;5055711;28;20050;-88
2023/10/14 01:29:41;;;;;;;2.55;0.93;;;;;;;;;;5055341;28;20488;-88
2023/10/14 01:32:24;;;;;;;2.00;0.60;;;;;;;;;;5055116;28;20027;-89
2023/10/14 01:34:59;;;;;;;4.15;0.73;;;;;;;;;;5055268;28;20020;-89
2023/10/14 01:37:34;;;;;;;6.18;0.80;;;;;;;;;;5055900;28;20352;-89
2023/10/14 01:40:16;;;;;;;2.50;0.73;;;;;;;;;;5055991;28;20031;-88
2023/10/14 01:42:42;;;;;;;7.75;1.23;;;;;;;;;;5054847;28;20025;-88
2023/10/14 01:45:07;;;;;;;3.53;0.80;;;;;;;;;;5055054;28;20028;-88
2023/10/14 01:47:42;;;;;;;5.13;0.93;;;;;;;;;;5055278;28;20412;-88
2023/10/14 01:50:12;;;;;;;4.40;0.90;;;;;;;;;;5055133;28;20074;-88
2023/10/14 01:52:37;;;;;;;5.70;1.20;;;;;;;;;;5055469;28;20141;-88
2023/10/14 01:55:03;;;;;;;3.92;0.93;;;;;;;;;;5073654;28;20051;-88
2023/10/14 01:57:28;;;;;;;4.70;0.60;;;;;;;;;;5055806;28;20012;-88
2023/10/14 01:59:54;;;;;;;3.55;1.05;;;;;;;;;;5089250;28;20020;-88
2023/10/14 02:02:27;;;;;;;7.65;0.93;;;;;;;;;;5057773;28;20073;-88
2023/10/14 02:04:56;;;;;;;8.65;1.10;;;;;;;;;;5076710;28;20019;-88
2023/10/14 02:07:22;;;;;;;4.90;1.20;;;;;;;;;;5074153;28;20372;-87
2023/10/14 02:09:48;;;;;;;4.90;1.40;;;;;;;;;;5073118;28;20020;-88
2023/10/14 02:12:14;;;;;;;5.60;1.35;;;;;;;;;;5055599;28;20025;-88
2023/10/14 02:14:44;;;;;;;8.48;1.20;;;;;;;;;;5055522;28;20028;-87
2023/10/14 02:17:10;;;;;;;5.72;1.30;;;;;;;;;;5076083;28;20036;-88
2023/10/14 02:19:41;;;;;;;4.82;1.00;;;;;;;;;;5054161;28;20031;-86
2023/10/14 02:22:09;;;;;;;5.90;1.10;;;;;;;;;;5054560;28;20104;-88
2023/10/14 02:24:36;;;;;;;7.22;1.20;;;;;;;;;;5087069;28;20432;-88
2023/10/14 02:27:12;;;;;;;10.10;1.35;;;;;;;;;;5046667;28;20438;-88
2023/10/14 02:29:41;;;;;;;8.15;1.10;;;;;;;;;;5050056;28;20024;-88
2023/10/14 02:32:11;;;;;;;9.00;1.92;;;;;;;;;;5050140;28;20427;-88
2023/10/14 02:34:37;;;;;;;9.77;1.50;;;;;;;;;;5053233;28;20028;-88
2023/10/14 02:37:06;;;;;;;5.65;1.40;;;;;;;;;;5050911;28;20020;-87
2023/10/14 02:39:31;;;;;;;6.28;1.38;;;;;;;;;;5053315;28;20023;-87
2023/10/14 02:42:00;;;;;;;10.05;2.10;;;;;;;;;;5052976;28;20036;-88
2023/10/14 02:44:31;;;;;;;8.18;1.55;;;;;;;;;;5071552;28;20699;-88
2023/10/14 02:47:03;;;;;;;5.00;1.40;;;;;;;;;;5054011;28;20047;-87
2023/10/14 02:49:34;;;;;;;7.70;1.40;;;;;;;;;;5054547;28;20031;-87
2023/10/14 02:52:03;;;;;;;7.65;1.33;;;;;;;;;;5054836;28;20090;-88
2023/10/14 02:54:33;;;;;;;5.47;1.35;;;;;;;;;;5053564;28;20119;-87
2023/10/14 02:56:59;;;;;;;10.68;1.40;;;;;;;;;;5072086;28;20052;-88
2023/10/14 02:59:58;;;;;;;9.10;1.67;;;;;;;;;;5054024;28;20040;-88
2023/10/14 03:04:55;;;;;;;8.98;1.88;;;;;;;;;;5072239;28;20498;-87
2023/10/14 03:07:31;;;;;;;12.70;1.85;;;;;;;;;;5054183;28;20422;-86
2023/10/14 03:10:20;;;;;;;10.98;1.27;;;;;;;;;;5056190;28;20047;-87
2023/10/14 03:12:49;;;;;;;12.35;1.65;;;;;;;;;;5057045;28;20020;-87
2023/10/14 03:15:22;;;;;;;13.32;1.70;;;;;;;;;;5056816;28;20096;-88
2023/10/14 03:18:03;;;;;;;14.93;1.67;;;;;;;;;;5057087;28;20028;-88
2023/10/14 03:22:59;;;;;;;14.70;1.95;;;;;;;;;;5071292;28;20394;-88
2023/10/14 03:25:25;;;;;;;12.80;1.73;;;;;;;;;;5061066;28;20107;-87
2023/10/14 03:28:27;;;;;;;11.48;1.50;;;;;;;;;;5053647;28;20048;-87
2023/10/14 03:30:47;;;;;;;6.38;1.27;;;;;;;;;;5071478;28;20059;-87
2023/10/14 03:33:13;;;;;;;9.13;1.55;;;;;;;;;;5056472;28;20024;-87
2023/10/14 03:35:43;;;;;;;17.17;1.77;;;;;;;;;;5054975;28;20391;-86
2023/10/14 03:38:22;;;;;;;12.55;1.73;;;;;;;;;;5057676;28;20031;-87
2023/10/14 03:43:15;;;;;;;16.65;1.42;;;;;;;;;;5076065;28;20078;-87
2023/10/14 03:48:29;;;;;;;11.52;1.50;;;;;;;;;;5074864;28;20042;-87
2023/10/14 03:51:02;;;;;;;15.02;1.52;;;;;;;;;;5075219;28;20017;-87
2023/10/14 03:53:34;;;;;;;9.68;1.17;;;;;;;;;;5057569;28;20442;-87
2023/10/14 03:56:03;;;;;;;7.00;1.10;;;;;;;;;;5057306;28;20400;-86
2023/10/14 03:58:32;;;;;;;11.48;1.10;;;;;;;;;;5056543;28;20074;-86
2023/10/14 04:01:02;;;;;;;7.47;1.25;;;;;;;;;;5056819;28;20040;-87
2023/10/14 04:03:40;;;;;;;9.25;1.23;;;;;;;;;;5056811;28;20028;-87
2023/10/14 04:06:07;;;;;;;5.65;1.52;;;;;;;;;;5057807;28;20032;-87
2023/10/14 04:08:39;;;;;;;12.77;1.10;;;;;;;;;;5075401;28;20069;-87
2023/10/14 04:11:14;;;;;;;11.55;1.42;;;;;;;;;;5056742;28;20519;-87
2023/10/14 04:13:58;;;;;;;7.75;1.10;;;;;;;;;;5055717;28;20028;-86
2023/10/14 04:16:28;;;;;;;7.88;1.00;;;;;;;;;;5061090;28;20025;-87
2023/10/14 04:18:59;;;;;;;7.00;0.95;;;;;;;;;;5090244;28;20071;-87
2023/10/14 04:21:31;;;;;;;10.47;0.80;;;;;;;;;;5056887;28;20143;-87
2023/10/14 04:24:08;;;;;;;13.80;1.42;;;;;;;;;;5056354;28;20032;-87
2023/10/14 04:26:35;;;;;;;12.45;1.60;;;;;;;;;;5058859;28;20119;-87
2023/10/14 04:29:02;;;;;;;8.43;1.33;;;;;;;;;;5061691;28;20093;-86
2023/10/14 04:31:39;;;;;;;10.25;2.15;;;;;;;;;;5063362;28;20482;-87
2023/10/14 04:34:14;;;;;;;7.55;1.17;;;;;;;;;;5062997;28;20024;-87
2023/10/14 04:36:53;;;;;;;9.27;1.25;;;;;;;;;;5065042;28;20063;-86
2023/10/14 04:39:33;;;;;;;11.23;1.13;;;;;;;;;;5066293;28;20031;-86
2023/10/14 04:44:54;;;;;;;8.10;1.15;;;;;;;;;;5078102;28;20016;-87
2023/10/14 04:47:28;;;;;;;7.60;1.40;;;;;;;;;;5081770;28;20048;-87
2023/10/14 04:49:57;;;;;;;10.63;2.42;;;;;;;;;;5074056;28;20021;-87
2023/10/14 04:52:26;;;;;;;15.07;2.10;;;;;;;;;;5074642;28;20099;-87
2023/10/14 04:54:53;;;;;;;8.27;1.73;;;;;;;;;;5056634;28;20537;-87
2023/10/14 04:57:24;;;;;;;8.70;1.45;;;;;;;;;;5056465;28;20361;-87
2023/10/14 04:59:54;;;;;;;9.30;1.35;;;;;;;;;;5055802;28;20453;-87
2023/10/14 05:02:24;;;;;;;11.10;1.30;;;;;;;;;;5073321;28;20421;-87
2023/10/14 05:04:50;;;;;;;11.73;1.33;;;;;;;;;;5056078;28;20017;-87
2023/10/14 05:07:15;;;;;;;8.75;1.95;;;;;;;;;;5074138;28;20020;-87
2023/10/14 05:09:41;;;;;;;8.02;1.90;;;;;;;;;;5056384;28;20020;-87
2023/10/14 05:12:17;;;;;;;13.48;1.65;;;;;;;;;;5056125;28;20027;-87
2023/10/14 05:14:42;;;;;;;15.10;1.40;;;;;;;;;;5054901;28;20025;-86
2023/10/14 05:19:41;;;;;;;10.23;1.42;;;;;;;;;;5074203;28;20036;-87
2023/10/14 05:22:19;;;;;;;7.50;1.10;;;;;;;;;;5056045;28;20028;-87
2023/10/14 05:25:03;;;;;;;15.30;1.50;;;;;;;;;;5055934;28;20124;-87
2023/10/14 05:27:45;;;;;;;18.70;1.90;;;;;;;;;;5054799;28;20044;-85
2023/10/14 05:30:21;;;;;;;9.05;1.38;;;;;;;;;;5063559;28;20020;-80
2023/10/14 05:32:48;;;;;;;10.52;1.98;;;;;;;;;;5054444;28;20144;-79
2023/10/14 05:35:14;;;;;;;12.10;1.77;;;;;;;;;;5049216;28;20035;-79
2023/10/14 05:37:45;;;;;;;13.25;1.83;;;;;;;;;;5054996;28;20839;-78
2023/10/14 05:40:13;;;;;;;12.27;1.70;;;;;;;;;;5063990;28;20032;-79
2023/10/14 05:42:45;;;;;;;7.18;1.10;;;;;;;;;;5062901;28;20249;-79
2023/10/14 05:45:11;;;;;;;16.73;1.58;;;;;;;;;;5062793;28;20043;-80
2023/10/14 05:47:37;;;;;;;11.43;1.48;;;;;;;;;;5059315;28;20032;-79
2023/10/14 05:50:08;;;;;;;9.93;1.27;;;;;;;;;;5061851;28;20353;-80
2023/10/14 05:52:34;;;;;;;10.82;1.42;;;;;;;;;;5059091;28;20048;-80
2023/10/14 05:55:01;;;;;;;11.75;1.35;;;;;;;;;;5060522;28;20020;-79
2023/10/14 05:57:29;;;;;;;6.20;1.30;;;;;;;;;;5054090;28;20412;-79
2023/10/14 05:59:57;;;;;;;10.50;1.33;;;;;;;;;;5078640;28;20028;-79
2023/10/14 06:02:23;;;;;;;9.65;1.13;;;;;;;;;;5056811;28;20024;-79
2023/10/14 06:04:50;;;;;;;7.90;1.40;;;;;;;;;;5072110;28;20024;-79
2023/10/14 06:07:18;;;;;;;10.35;1.08;;;;;;;;;;5054333;28;20440;-80
2023/10/14 06:09:47;;;;;;;10.73;1.50;;;;;;;;;;5072375;28;20384;-79
2023/10/14 06:12:12;;;;;;;10.50;1.10;;;;;;;;;;5054450;28;20020;-80
2023/10/14 06:14:41;;;;;;;12.68;1.42;;;;;;;;;;5053779;28;20493;-79
2023/10/14 06:17:07;;;;;;;8.82;1.35;;;;;;;;;;5053558;28;20028;-80
2023/10/14 06:19:35;;;;;;;13.20;1.33;;;;;;;;;;5053595;28;20047;-79
2023/10/14 06:22:02;;;;;;;10.77;1.20;;;;;;;;;;5087654;28;20388;-80
2023/10/14 06:24:28;;;;;;;6.88;1.02;;;;;;;;;;5053507;28;20445;-79
2023/10/14 06:27:07;;;;;;;13.80;1.50;;;;;;;;;;5053526;28;20099;-80
2023/10/14 06:29:32;;;;;;;6.68;1.40;;;;;;;;;;5053591;28;20483;-80
2023/10/14 06:32:01;;;;;;;13.60;1.08;;;;;;;;;;5053137;28;20013;-79
2023/10/14 06:34:27;;;;;;;5.57;0.95;;;;;;;;;;5071983;28;20043;-79
2023/10/14 06:36:53;;;;;;;10.07;1.10;;;;;;;;;;5053672;28;20039;-79
2023/10/14 06:39:26;;;;;;;10.25;1.20;;;;;;;;;;5053405;28;20107;-79
2023/10/14 06:41:52;;;;;;;9.10;1.17;;;;;;;;;;5053186;28;20031;-79
2023/10/14 06:44:20;;;;;;;18.05;1.40;;;;;;;;;;5076861;28;20416;-80
2023/10/14 06:46:45;;;;;;;10.48;1.83;;;;;;;;;;5071389;28;20024;-80
2023/10/14 06:49:14;;;;;;;13.77;1.30;;;;;;;;;;5054046;28;20016;-80
2023/10/14 06:51:42;;;;;;;6.38;1.08;;;;;;;;;;5055732;28;20033;-79
2023/10/14 06:54:09;;;;;;;11.77;1.15;;;;;;;;;;5058493;28;20024;-79
2023/10/14 06:56:40;;;;;;;8.45;1.67;;;;;;;;;;5057808;28;20074;-79
2023/10/14 06:59:05;;;;;;;9.82;1.10;;;;;;;;;;5059627;28;20329;-79
2023/10/14 07:01:31;;;;;;;7.70;1.40;;;;;;;;;;5057608;28;20050;-79
2023/10/14 07:03:56;;;;;;;9.10;0.93;;;;;;;;;;5059360;28;20483;-79
2023/10/14 07:06:23;;;;;;;3.88;0.77;;;;;;;;;;5076140;28;20488;-80
2023/10/14 07:08:50;;;;;;;10.48;1.30;;;;;;;;;;5057567;28;20476;-79
2023/10/14 07:11:16;;;;;;;9.75;1.17;;;;;;;;;;5058193;28;20357;-80
2023/10/14 07:13:42;;;;;;;10.68;1.60;;;;;;;;;;5062988;28;20016;-80
2023/10/14 07:16:08;;;;;;;9.23;1.25;;;;;;;;;;5057468;28;20032;-80
2023/10/14 07:18:36;;;;;;;10.95;1.20;;;;;;;;;;5057008;28;20035;-79
2023/10/14 07:21:02;;;;;;;12.77;1.58;;;;;;;;;;5056011;28;20032;-79
2023/10/14 07:23:29;;;;;;;10.20;1.42;;;;;;;;;;5054607;28;20032;-79
2023/10/14 07:25:54;;;;;;;10.07;1.67;;;;;;;;;;5054515;28;20391;-79
2023/10/14 07:28:19;;;;;;;9.13;0.98;;;;;;;;;;5055232;28;20020;-80
2023/10/14 07:30:51;;;;;;;8.02;1.50;;;;;;;;;;5056578;28;20023;-80
2023/10/14 07:33:17;;;;;;;14.07;1.63;;;;;;;;;;5052842;28;20353;-80
2023/10/14 07:35:43;;;;;;;11.05;1.63;;;;;;;;;;5052672;28;20041;-81
2023/10/14 07:38:09;;;;;;;7.28;1.45;;;;;;;;;;5055084;28;20020;-81
2023/10/14 07:40:38;;;;;;;7.53;1.33;;;;;;;;;;5053163;28;20078;-80
2023/10/14 07:43:15;;;;;;;16.65;1.83;;;;;;;;;;5053279;28;20059;-80
2023/10/14 07:45:42;;;;;;;7.35;1.15;;;;;;;;;;5072221;28;20025;-80
2023/10/14 07:48:08;;;;;;;8.82;1.27;;;;;;;;;;5052366;28;20077;-81
2023/10/14 07:50:37;;;;;;;8.15;1.92;;;;;;;;;;5056602;28;20024;-80
2023/10/14 07:53:07;;;;;;;7.93;1.70;;;;;;;;;;5055000;28;20017;-80
2023/10/14 07:55:35;;;;;;;10.02;1.27;;;;;;;;;;5056920;28;20490;-80
2023/10/14 07:58:00;;;;;;;10.85;1.42;;;;;;;;;;5058008;28;20043;-80
2023/10/14 08:00:37;;;;;;;7.80;1.33;;;;;;;;;;5056972;28;20028;-80
2023/10/14 08:03:06;;;;;;;8.57;1.27;;;;;;;;;;5057396;28;20024;-80
2023/10/14 08:05:33;;;;;;;8.70;1.38;;;;;;;;;;5057547;28;20957;-81
2023/10/14 08:08:06;;;;;;;10.00;1.52;;;;;;;;;;5057632;28;20017;-80
2023/10/14 08:10:31;;;;;;;7.55;1.55;;;;;;;;;;5058159;28;20070;-80
2023/10/14 08:12:57;;;;;;;7.53;1.05;;;;;;;;;;5059704;28;20020;-80
2023/10/14 08:15:28;;;;;;;12.25;1.48;;;;;;;;;;5058311;28;20074;-81
2023/10/14 08:18:05;;;;;;;7.97;1.08;;;;;;;;;;5074642;28;20037;-80
2023/10/14 08:20:31;;;;;;;10.48;1.10;;;;;;;;;;5054665;28;20132;-81
2023/10/14 08:22:57;;;;;;;13.18;1.63;;;;;;;;;;5057264;28;20028;-80
2023/10/14 08:25:25;;;;;;;10.77;1.40;;;;;;;;;;5056220;28;20422;-80
2023/10/14 08:27:50;;;;;;;6.28;1.10;;;;;;;;;;5074958;28;20021;-80
2023/10/14 08:30:19;;;;;;;17.45;1.90;;;;;;;;;;5083360;28;20024;-80
2023/10/14 08:32:46;;;;;;;9.73;1.65;;;;;;;;;;5055243;28;20017;-81
2023/10/14 08:35:15;;;;;;;6.75;1.25;;;;;;;;;;5050393;28;21022;-80
2023/10/14 08:37:47;;;;;;;11.40;1.55;;;;;;;;;;5054051;28;20422;-81
2023/10/14 08:40:16;;;;;;;11.68;1.38;;;;;;;;;;5054787;28;20032;-80
2023/10/14 08:42:45;;;;;;;4.95;1.10;;;;;;;;;;5053157;28;20355;-80
2023/10/14 08:45:16;;;;;;;10.15;1.50;;;;;;;;;;5070107;28;20494;-80
2023/10/14 08:47:43;;;;;;;16.15;1.38;;;;;;;;;;5054053;28;20476;-80
2023/10/14 08:50:09;;;;;;;9.80;1.35;;;;;;;;;;5054499;28;20017;-80
2023/10/14 08:52:37;;;;;;;9.93;1.33;;;;;;;;;;5054608;28;20103;-81
2023/10/14 08:55:03;;;;;;;11.00;1.25;;;;;;;;;;5053520;28;20105;-80
2023/10/14 08:57:30;;;;;;;13.30;1.95;;;;;;;;;;5052423;28;20501;-80
2023/10/14 08:59:55;;;;;;;11.70;1.58;;;;;;;;;;5067484;28;20111;-80
2023/10/14 09:02:22;;;;;;;12.90;1.55;;;;;;;;;;5088973;28;20534;-80
2023/10/14 09:04:47;;;;;;;10.48;1.70;;;;;;;;;;5088065;28;20442;-80
2023/10/14 09:07:13;;;;;;;12.90;1.25;;;;;;;;;;5054449;28;20017;-80
2023/10/14 09:09:38;;;;;;;11.77;1.55;;;;;;;;;;5054594;28;20028;-80
2023/10/14 09:12:10;;;;;;;9.52;1.30;;;;;;;;;;5068611;28;20020;-80
2023/10/14 09:14:37;;;;;;;11.13;1.63;;;;;;;;;;5055011;28;20025;-80
2023/10/14 09:17:05;;;;;;;8.57;1.20;;;;;;;;;;5054756;28;20425;-81
2023/10/14 09:19:42;;;;;;;7.88;1.48;;;;;;;;;;5055417;28;20021;-81
2023/10/14 09:22:08;;;;;;;11.38;1.60;;;;;;;;;;5090325;28;20051;-80
2023/10/14 09:24:34;;;;;;;13.73;1.50;;;;;;;;;;5056204;28;20068;-81
2023/10/14 09:27:03;;;;;;;10.77;1.08;;;;;;;;;;5056078;28;20430;-81
2023/10/14 09:29:28;;;;;;;8.45;1.15;;;;;;;;;;5054175;28;20023;-81
2023/10/14 09:31:53;;;;;;;9.60;1.25;;;;;;;;;;5054742;28;20020;-80
2023/10/14 09:34:22;;;;;;;9.15;1.40;;;;;;;;;;5056802;28;20013;-80
2023/10/14 09:36:52;;;;;;;11.50;1.10;;;;;;;;;;5056235;28;20023;-82
2023/10/14 09:39:24;;;;;;;10.40;1.15;;;;;;;;;;5065660;28;20058;-81
2023/10/14 09:41:50;;;;;;;6.72;0.95;;;;;;;;;;5055467;28;20025;-81
2023/10/14 09:44:17;;;;;;;18.92;1.35;;;;;;;;;;5054708;28;20493;-81
2023/10/14 09:46:43;;;;;;;8.50;0.93;;;;;;;;;;5082489;28;20020;-82
2023/10/14 09:49:10;;;;;;;7.60;0.93;;;;;;;;;;5054264;28;20020;-82
2023/10/14 09:51:36;;;;;;;13.90;1.35;;;;;;;;;;5054806;28;20032;-81
2023/10/14 09:54:03;;;;;;;7.53;0.88;;;;;;;;;;5054037;28;20009;-81
2023/10/14 09:56:30;;;;;;;12.07;1.45;;;;;;;;;;5051394;28;20499;-81
2023/10/14 09:58:58;;;;;;;5.03;1.00;;;;;;;;;;5054924;28;20720;-82
2023/10/14 10:01:24;;;;;;;12.95;1.83;;;;;;;;;;5045765;28;20078;-81
2023/10/14 10:03:55;;;;;;;8.15;1.17;;;;;;;;;;5053975;28;20017;-81
2023/10/14 10:06:21;;;;;;;13.73;2.27;;;;;;;;;;5088456;28;20375;-81
2023/10/14 10:08:46;;;;;;;12.30;1.27;;;;;;;;;;5085379;28;20047;-81
2023/10/14 10:11:12;;;;;;;9.95;1.05;;;;;;;;;;5084779;28;20039;-81
2023/10/14 10:13:41;;;;;;;2.35;0.98;;;;;;;;;;5053093;28;20097;-81
2023/10/14 10:16:06;;;;;;;13.77;1.30;;;;;;;;;;5053901;28;20380;-81
2023/10/14 10:18:56;;;;;;;6.85;1.05;;;;;;;;;;5053963;28;20028;-82
2023/10/14 10:21:24;;;;;;;9.60;1.50;;;;;;;;;;5069515;28;20464;-81
2023/10/14 10:23:56;;;;;;;5.88;1.02;;;;;;;;;;5052943;28;20047;-81
2023/10/14 10:26:23;;;;;;;8.43;1.40;;;;;;;;;;5054543;28;20398;-81
2023/10/14 10:28:48;;;;;;;15.57;1.55;;;;;;;;;;5069963;28;20107;-81
2023/10/14 10:31:16;;;;;;;12.65;1.20;;;;;;;;;;5071804;28;20047;-82
2023/10/14 10:33:59;;;;;;;8.60;1.40;;;;;;;;;;5054284;28;20091;-82
2023/10/14 10:36:30;;;;;;;10.55;1.20;;;;;;;;;;5052835;28;20021;-81
2023/10/14 10:38:57;;;;;;;8.15;1.00;;;;;;;;;;5055383;28;20016;-82
2023/10/14 10:41:24;;;;;;;7.43;1.17;;;;;;;;;;5056015;28;20012;-81
2023/10/14 10:43:58;;;;;;;9.23;1.38;;;;;;;;;;5054363;28;20013;-82
2023/10/14 10:46:44;;;;;;;7.15;1.45;;;;;;;;;;5054489;28;20074;-82
2023/10/14 10:49:11;;;;;;;8.45;1.20;;;;;;;;;;5053886;28;20024;-81
2023/10/14 10:51:42;;;;;;;9.48;1.05;;;;;;;;;;5054891;28;20074;-80
2023/10/14 10:54:09;;;;;;;9.90;2.47;;;;;;;;;;5052657;28;20065;-82
2023/10/14 10:56:34;;;;;;;5.03;1.02;;;;;;;;;;5053723;28;20417;-81
2023/10/14 10:59:04;;;;;;;4.97;0.70;;;;;;;;;;5053203;28;20044;-81
2023/10/14 11:01:31;;;;;;;9.95;1.17;;;;;;;;;;5054395;28;20027;-81
2023/10/14 11:03:57;;;;;;;8.38;1.10;;;;;;;;;;5069722;28;20024;-81
2023/10/14 11:06:24;;;;;;;7.55;1.17;;;;;;;;;;5052891;28;20031;-81
2023/10/14 11:08:50;;;;;;;4.10;1.10;;;;;;;;;;5050970;28;20945;-81
2023/10/14 11:11:15;;;;;;;8.05;1.52;;;;;;;;;;5052729;28;20025;-82
2023/10/14 11:13:41;;;;;;;9.52;1.50;;;;;;;;;;5070122;28;20048;-81
2023/10/14 11:16:13;;;;;;;11.23;1.77;;;;;;;;;;5067699;28;20024;-81
2023/10/14 11:18:46;;;;;;;9.50;1.27;;;;;;;;;;5053498;28;20094;-81
2023/10/14 11:21:12;;;;;;;5.78;1.63;;;;;;;;;;5053082;28;20073;-81
2023/10/14 11:23:39;;;;;;;7.15;1.70;;;;;;;;;;5053574;28;20032;-81
2023/10/14 11:26:11;;;;;;;11.68;1.95;;;;;;;;;;5051875;28;20029;-81
2023/10/14 11:28:37;;;;;;;;;;;;;;;;;;5053539;28;20027;-82
2023/10/14 11:31:07;;;;;;;5.82;1.27;;;;;;;;;;5055031;28;19908;-81
2023/10/14 11:33:34;;;;;;;5.88;1.13;;;;;;;;;;5051945;28;20021;-81
2023/10/14 11:36:02;;;;;;;10.95;1.70;;;;;;;;;;5049979;28;20090;-82
2023/10/14 11:38:29;;;;;;;11.00;1.13;;;;;;;;;;5052240;28;20023;-81
2023/10/14 11:40:55;;;;;;;10.52;1.10;;;;;;;;;;5055721;28;20021;-81
2023/10/14 11:43:23;;;;;;;14.70;1.25;;;;;;;;;;5053341;28;20328;-82
2023/10/14 11:45:51;;;;;;;6.10;1.35;;;;;;;;;;5053402;28;20161;-81
2023/10/14 11:48:23;;;;;;;20.13;1.75;;;;;;;;;;5054433;28;20013;-81
2023/10/14 11:50:49;;;;;;;;;;;;;;;;;;5056140;28;20047;-81
2023/10/14 11:53:14;;;;;;;8.70;1.52;;;;;;;;;;5054938;28;19905;-82
2023/10/14 11:55:39;;;;;;;7.97;0.93;;;;;;;;;;5058479;28;20035;-82
2023/10/14 11:58:05;;;;;;;7.65;1.02;;;;;;;;;;5057672;28;20025;-81
2023/10/14 12:00:30;;;;;;;7.00;1.10;;;;;;;;;;5056543;28;20024;-81
2023/10/14 12:02:59;;;;;;;8.07;1.00;;;;;;;;;;5057759;28;20031;-81
2023/10/14 12:05:26;;;;;;;7.93;1.50;;;;;;;;;;5057242;28;20537;-80
2023/10/14 12:07:52;;;;;;;5.93;1.23;;;;;;;;;;5056854;28;20410;-81
2023/10/14 12:10:17;;;;;;;7.03;1.30;;;;;;;;;;5058598;28;20151;-80
2023/10/14 12:12:52;;;;;;;7.07;0.80;;;;;;;;;;5056241;28;20021;-80
2023/10/14 12:15:20;;;;;;;9.68;1.65;;;;;;;;;;5055765;28;20016;-79
2023/10/14 12:17:45;;;;;;;8.18;1.15;;;;;;;;;;5056443;28;20033;-81
2023/10/14 12:20:11;;;;;;;9.45;1.17;;;;;;;;;;5056549;28;20077;-80
2023/10/14 12:22:38;;;;;;;7.32;1.35;;;;;;;;;;5056665;28;20026;-81
2023/10/14 12:25:04;;;;;;;14.40;0.98;;;;;;;;;;5054375;28;20024;-81
2023/10/14 12:27:29;;;;;;;9.68;1.60;;;;;;;;;;5071847;28;20020;-81
2023/10/14 12:29:54;;;;;;;7.25;1.05;;;;;;;;;;5054459;28;20468;-80
2023/10/14 12:32:25;;;;;;;7.90;1.15;;;;;;;;;;5085367;28;20368;-82
2023/10/14 12:34:52;;;;;;;10.60;1.08;;;;;;;;;;5055136;28;20468;-81
2023/10/14 12:37:21;;;;;;;11.18;1.33;;;;;;;;;;5056143;28;20040;-80
2023/10/14 12:39:53;;;;;;;14.02;1.35;;;;;;;;;;5054890;28;20052;-81
2023/10/14 12:42:23;;;;;;;10.75;1.20;;;;;;;;;;5055777;28;20386;-81
2023/10/14 12:44:49;;;;;;;8.30;1.10;;;;;;;;;;5073670;28;20518;-81
2023/10/14 12:47:18;;;;;;;8.50;0.90;;;;;;;;;;5055312;28;20099;-81
2023/10/14 12:49:43;;;;;;;11.93;1.80;;;;;;;;;;5052052;28;20434;-81
2023/10/14 12:52:15;;;;;;;8.50;1.00;;;;;;;;;;5055427;28;20016;-81
2023/10/14 12:54:41;;;;;;;10.63;1.10;;;;;;;;;;5056291;28;20016;-81
2023/10/14 12:57:08;;;;;;;8.27;1.40;;;;;;;;;;5055472;28;20077;-82
2023/10/14 12:59:36;;;;;;;9.75;0.98;;;;;;;;;;5056324;28;20021;-81
2023/10/14 13:02:03;;;;;;;8.65;1.05;;;;;;;;;;5057167;28;20020;-81
2023/10/14 13:04:33;;;;;;;6.95;0.98;;;;;;;;;;5056516;28;20033;-81
2023/10/14 13:06:59;;;;;;;11.32;1.08;;;;;;;;;;5058176;28;20046;-81
2023/10/14 13:09:27;;;;;;;11.93;1.33;;;;;;;;;;5055566;28;20040;-82
2023/10/14 13:11:55;;;;;;;13.63;0.90;;;;;;;;;;5055834;28;20337;-82
2023/10/14 13:14:27;;;;;;;18.70;1.17;;;;;;;;;;5056432;28;20499;-81
2023/10/14 13:16:53;;;;;;;3.40;0.77;;;;;;;;;;5056001;28;20036;-81
2023/10/14 13:19:19;;;;;;;15.35;1.40;;;;;;;;;;5054851;28;20427;-81
2023/10/14 13:21:44;;;;;;;7.38;1.25;;;;;;;;;;5055680;28;20025;-81
2023/10/14 13:24:11;;;;;;;10.18;1.27;;;;;;;;;;5055017;28;20019;-81
2023/10/14 13:26:40;;;;;;;7.32;0.90;;;;;;;;;;5055081;28;20020;-80
2023/10/14 13:29:06;;;;;;;6.75;1.52;;;;;;;;;;5054850;28;20392;-81
2023/10/14 13:31:31;;;;;;;4.25;0.70;;;;;;;;;;5054733;28;20024;-81
2023/10/14 13:33:56;;;;;;;10.75;0.77;;;;;;;;;;5054509;28;20017;-81
2023/10/14 13:36:22;;;;;;;16.05;1.13;;;;;;;;;;5054558;28;20028;-81
2023/10/14 13:38:47;;;;;;;8.32;1.20;;;;;;;;;;5054271;28;20026;-81
2023/10/14 13:41:14;;;;;;;6.30;1.08;;;;;;;;;;5054685;28;20020;-81
2023/10/14 13:43:39;;;;;;;14.43;1.55;;;;;;;;;;5054572;28;20024;-81
2023/10/14 13:46:07;;;;;;;10.80;1.38;;;;;;;;;;5054797;28;20025;-81
2023/10/14 13:48:33;;;;;;;6.57;1.00;;;;;;;;;;5054472;28;20013;-81
2023/10/14 13:50:59;;;;;;;6.70;1.00;;;;;;;;;;5072566;28;20016;-81
2023/10/14 13:53:25;;;;;;;8.32;1.05;;;;;;;;;;5054530;28;20016;-81
2023/10/14 13:55:54;;;;;;;10.85;0.90;;;;;;;;;;5054726;28;20066;-81
2023/10/14 13:58:21;;;;;;;12.18;1.63;;;;;;;;;;5054668;28;20031;-80
2023/10/14 14:00:49;;;;;;;7.97;1.15;;;;;;;;;;5054539;28;20028;-81
2023/10/14 14:03:15;;;;;;;6.20;0.80;;;;;;;;;;5055391;28;20028;-80
2023/10/14 14:05:41;;;;;;;8.30;0.68;;;;;;;;;;5056430;28;20272;-81
2023/10/14 14:08:12;;;;;;;11.45;1.30;;;;;;;;;;5053363;28;20033;-81
2023/10/14 14:10:41;;;;;;;12.20;1.15;;;;;;;;;;5054528;28;20028;-80
2023/10/14 14:13:06;;;;;;;8.50;0.70;;;;;;;;;;5073066;28;20093;-81
2023/10/14 14:15:32;;;;;;;10.02;1.02;;;;;;;;;;5074190;28;20072;-81
2023/10/14 14:18:00;;;;;;;9.32;1.00;;;;;;;;;;5055558;28;20032;-81
2023/10/14 14:20:25;;;;;;;7.07;0.60;;;;;;;;;;5075296;28;20016;-81
2023/10/14 14:22:55;;;;;;;8.60;1.25;;;;;;;;;;5055182;28;20028;-80
2023/10/14 14:25:21;;;;;;;7.82;1.33;;;;;;;;;;5053389;28;20035;-80
2023/10/14 14:27:48;;;;;;;7.78;1.02;;;;;;;;;;5054453;28;20410;-81
2023/10/14 14:30:14;;;;;;;12.95;1.83;;;;;;;;;;5054545;28;20016;-81
2023/10/14 14:32:39;;;;;;;11.73;1.00;;;;;;;;;;5073102;28;20043;-80
2023/10/14 14:35:08;;;;;;;9.90;1.10;;;;;;;;;;5051102;28;20021;-81
2023/10/14 14:37:36;;;;;;;6.13;0.90;;;;;;;;;;5056739;28;20421;-81
2023/10/14 14:40:31;;;;;;;7.47;1.17;;;;;;;;;;5054149;28;20039;-80
2023/10/14 14:42:57;;;;;;;11.20;1.60;;;;;;;;;;5070832;28;20032;-81
2023/10/14 14:45:23;;;;;;;8.18;1.13;;;;;;;;;;5054002;28;20107;-81
2023/10/14 14:47:53;;;;;;;6.50;0.90;;;;;;;;;;5053389;28;20069;-81
2023/10/14 14:50:20;;;;;;;12.18;1.20;;;;;;;;;;5053108;28;20031;-83
2023/10/14 14:52:47;;;;;;;14.88;1.83;;;;;;;;;;5053202;28;20507;-82
2023/10/14 14:55:14;;;;;;;13.57;1.60;;;;;;;;;;5052688;28;20028;-82
2023/10/14 14:57:44;;;;;;;6.40;1.20;;;;;;;;;;5053582;28;20158;-81
2023/10/14 15:00:14;;;;;;;7.28;0.77;;;;;;;;;;5052310;28;20119;-81
2023/10/14 15:02:39;;;;;;;8.45;1.25;;;;;;;;;;5080382;28;20073;-82
2023/10/14 15:05:05;;;;;;;8.07;0.82;;;;;;;;;;5052046;28;20503;-81
2023/10/14 15:07:32;;;;;;;11.38;1.10;;;;;;;;;;5053293;28;20501;-81
2023/10/14 15:10:00;;;;;;;8.23;1.00;;;;;;;;;;5053551;28;20021;-82
2023/10/14 15:12:26;;;;;;;4.07;0.70;;;;;;;;;;5053693;28;20024;-82